Thunder radar more information blitzortung!


Radar de pluja more information rain snow radar


Visita la nostra xarxa de llocs de meteo:

Template documentation
and downloads

And another site



No particular awareness of the weather is required.    There are no Weather-warnings

Pagina Historial Weather Underground text

Diari Resum Juny 28, 2017 Unitats:  Tant    Imperial   Mètric
« Previous Dia
SegĂźent Dia »
Diari Setmana Mensual Anual Personalitzada
  Maxima: Minima: Media:
Temperatura: 88.5 °F /  31.4 °C 61.2 °F /  16.2 °C 76.5 °F /  24.7 °C
Punt de rosada: 64.9 °F /  18.3 °C 47.5 °F /  8.6 °C 53.6 °F /  12 °C
Humitat: 78 % 28 % 48 %
Wind Speed: 20.7 mph /  33.3 km/h - 6.2 mph /  10 km/h
RĂ fegues de vent: 20.7 mph /  33.3 km/h - -
Vent:- - SSW
Pression baro: 29.7 in /  1006.0 hPa 29.5 in /  999.9 hPa -
Precipitacions: 0.08 in /  2.0 mm    
Historical Graphs
 
 
Dades de taula per Juny 28, 2017
Temps Temperatura Punt de rosada Pression baro Vent Wind Speed RĂ fegues de vent Humitat Rainfall Rate (Hourly)
00:00 69.8 °F /  21.0 °C 61.5 °F /  16.4 °C 29.6 in /  1003.9 hPa ENE 2 mph /  3.2 km/h 3 mph /  4.8 km/h 75 % 0 in /  0.0 mm
00:04 74.1 °F /  23.4 °C 64.9 °F /  18.3 °C 29.6 in /  1002.9 hPa Calm     73 % 0 in /  0.0 mm
00:10 69.8 °F /  21.0 °C 61.9 °F /  16.6 °C 29.6 in /  1003.9 hPa ENE 1 mph /  1.6 km/h 3 mph /  4.8 km/h 76 % 0 in /  0.0 mm
00:20 69.8 °F /  21.0 °C 61.9 °F /  16.6 °C 29.6 in /  1003.9 hPa NE 2 mph /  3.2 km/h 4 mph /  6.4 km/h 76 % 0 in /  0.0 mm
00:30 69.8 °F /  21.0 °C 61.9 °F /  16.6 °C 29.6 in /  1003.9 hPa NE 2 mph /  3.2 km/h 3 mph /  4.8 km/h 76 % 0 in /  0.0 mm
00:40 69.6 °F /  20.9 °C 62.1 °F /  16.7 °C 29.6 in /  1002.9 hPa Calm   2 mph /  3.2 km/h 77 % 0 in /  0.0 mm
00:50 69.4 °F /  20.8 °C 61.9 °F /  16.6 °C 29.6 in /  1002.9 hPa Calm   2 mph /  3.2 km/h 77 % 0 in /  0.0 mm
01:00 69.4 °F /  20.8 °C 61.9 °F /  16.6 °C 29.6 in /  1002.9 hPa Calm   2 mph /  3.2 km/h 77 % 0 in /  0.0 mm
01:10 69.1 °F /  20.6 °C 61.5 °F /  16.4 °C 29.6 in /  1003.9 hPa North 1 mph /  1.6 km/h 2 mph /  3.2 km/h 77 % 0 in /  0.0 mm
01:20 68.7 °F /  20.4 °C 61.2 °F /  16.2 °C 29.6 in /  1002.9 hPa Calm   1 mph /  1.6 km/h 77 % 0 in /  0.0 mm
01:30 68.5 °F /  20.3 °C 61 °F /  16.1 °C 29.6 in /  1002.9 hPa Calm     77 % 0 in /  0.0 mm
01:40 68.4 °F /  20.2 °C 61.2 °F /  16.2 °C 29.6 in /  1002.9 hPa Calm   1 mph /  1.6 km/h 78 % 0 in /  0.0 mm
01:50 68.4 °F /  20.2 °C 61.2 °F /  16.2 °C 29.6 in /  1002.9 hPa Calm   1 mph /  1.6 km/h 78 % 0 in /  0.0 mm
02:00 68.2 °F /  20.1 °C 61.2 °F /  16.2 °C 29.6 in /  1002.9 hPa West 1 mph /  1.6 km/h 2 mph /  3.2 km/h 78 % 0 in /  0.0 mm
02:10 68.4 °F /  20.2 °C 61.2 °F /  16.2 °C 29.6 in /  1003.9 hPa WSW 1 mph /  1.6 km/h 2 mph /  3.2 km/h 78 % 0 in /  0.0 mm
02:20 68.4 °F /  20.2 °C 61.2 °F /  16.2 °C 29.6 in /  1003.9 hPa Calm   3 mph /  4.8 km/h 78 % 0 in /  0.0 mm
02:30 68.4 °F /  20.2 °C 61.2 °F /  16.2 °C 29.6 in /  1003.9 hPa WSW 2 mph /  3.2 km/h 3 mph /  4.8 km/h 78 % 0 in /  0.0 mm
02:40 68.7 °F /  20.4 °C 61.5 °F /  16.4 °C 29.6 in /  1002.9 hPa SW 1 mph /  1.6 km/h 2 mph /  3.2 km/h 78 % 0 in /  0.0 mm
02:50 69.1 °F /  20.6 °C 61.9 °F /  16.6 °C 29.6 in /  1003.9 hPa SW 2 mph /  3.2 km/h 2 mph /  3.2 km/h 78 % 0 in /  0.0 mm
03:00 69.8 °F /  21.0 °C 62.2 °F /  16.8 °C 29.6 in /  1003.9 hPa WSW 2 mph /  3.2 km/h 3 mph /  4.8 km/h 77 % 0 in /  0.0 mm
03:10 70.9 °F /  21.6 °C 63 °F /  17.2 °C 29.6 in /  1003.9 hPa WSW 2 mph /  3.2 km/h 4 mph /  6.4 km/h 76 % 0 in /  0.0 mm
03:20 71.8 °F /  22.1 °C 61.9 °F /  16.6 °C 29.6 in /  1003.9 hPa WSW 3 mph /  4.8 km/h 5 mph /  8.0 km/h 71 % 0 in /  0.0 mm
03:30 72.9 °F /  22.7 °C 61.3 °F /  16.3 °C 29.6 in /  1003.9 hPa West 3 mph /  4.8 km/h 4 mph /  6.4 km/h 67 % 0 in /  0.0 mm
03:40 73.4 °F /  23.0 °C 59.5 °F /  15.3 °C 29.6 in /  1003.9 hPa West 3 mph /  4.8 km/h 6 mph /  9.7 km/h 62 % 0 in /  0.0 mm
03:50 73 °F /  22.8 °C 57.9 °F /  14.4 °C 29.6 in /  1002.9 hPa WSW 3 mph /  4.8 km/h 8 mph /  12.9 km/h 59 % 0 in /  0.0 mm
04:00 72.5 °F /  22.5 °C 56.5 °F /  13.6 °C 29.6 in /  1002.9 hPa WSW 3 mph /  4.8 km/h 6 mph /  9.7 km/h 57 % 0 in /  0.0 mm
04:10 73.9 °F /  23.3 °C 57.4 °F /  14.1 °C 29.7 in /  1005.0 hPa WSW 2 mph /  3.2 km/h 3 mph /  4.8 km/h 56 % 0 in /  0.0 mm
04:20 74.7 °F /  23.7 °C 57.4 °F /  14.1 °C 29.6 in /  1003.9 hPa WSW 3 mph /  4.8 km/h 3 mph /  4.8 km/h 55 % 0 in /  0.0 mm
04:30 75.2 °F /  24.0 °C 56.8 °F /  13.8 °C 29.6 in /  1003.9 hPa WSW 3 mph /  4.8 km/h 4 mph /  6.4 km/h 53 % 0 in /  0.0 mm
04:40 76.1 °F /  24.5 °C 57.2 °F /  14.0 °C 29.6 in /  1002.9 hPa WSW 2 mph /  3.2 km/h 4 mph /  6.4 km/h 52 % 0 in /  0.0 mm
04:50 76.3 °F /  24.6 °C 56.8 °F /  13.8 °C 29.6 in /  1003.9 hPa WSW 3 mph /  4.8 km/h 4 mph /  6.4 km/h 51 % 0 in /  0.0 mm
05:00 77 °F /  25.0 °C 56.5 °F /  13.6 °C 29.6 in /  1003.9 hPa WSW 5 mph /  8.0 km/h 7 mph /  11.3 km/h 49 % 0 in /  0.0 mm
05:10 77.4 °F /  25.2 °C 56.1 °F /  13.4 °C 29.6 in /  1003.9 hPa WSW 3 mph /  4.8 km/h 5 mph /  8.0 km/h 48 % 0 in /  0.0 mm
05:20 78.3 °F /  25.7 °C 56.5 °F /  13.6 °C 29.6 in /  1003.9 hPa WSW 6 mph /  9.7 km/h 6 mph /  9.7 km/h 47 % 0 in /  0.0 mm
05:30 79.2 °F /  26.2 °C 56.7 °F /  13.7 °C 29.6 in /  1003.9 hPa WSW 3 mph /  4.8 km/h 6 mph /  9.7 km/h 46 % 0 in /  0.0 mm
05:40 79.3 °F /  26.3 °C 55.6 °F /  13.1 °C 29.6 in /  1003.9 hPa West 5 mph /  8.0 km/h 6 mph /  9.7 km/h 44 % 0 in /  0.0 mm
10:45 79.9 °F /  26.6 °C 54.7 °F /  12.6 °C 29.6 in /  1002.9 hPa West 10.4 mph /  16.7 km/h 10.4 mph /  16.7 km/h 42 % 0 in /  0.0 mm
10:46 79.9 °F /  26.6 °C 54.7 °F /  12.6 °C 29.6 in /  1002.9 hPa WSW 10.4 mph /  16.7 km/h 10.4 mph /  16.7 km/h 42 % 0 in /  0.0 mm
10:51 80.4 °F /  26.9 °C 55.2 °F /  12.9 °C 29.6 in /  1002.9 hPa South 3.5 mph /  5.6 km/h 3.5 mph /  5.6 km/h 42 % 0 in /  0.0 mm
10:56 80.8 °F /  27.1 °C 54.9 °F /  12.7 °C 29.6 in /  1002.9 hPa SSW 4.7 mph /  7.6 km/h 4.7 mph /  7.6 km/h 41 % 0 in /  0.0 mm
10:57 80.6 °F /  27.0 °C 54.7 °F /  12.6 °C 29.6 in /  1002.9 hPa West 5.8 mph /  9.3 km/h 5.8 mph /  9.3 km/h 41 % 0 in /  0.0 mm
11:02 79.9 °F /  26.6 °C 54.1 °F /  12.3 °C 29.6 in /  1002.9 hPa WSW 3.5 mph /  5.6 km/h 3.5 mph /  5.6 km/h 41 % 0 in /  0.0 mm
11:07 80.1 °F /  26.7 °C 53.6 °F /  12.0 °C 29.6 in /  1002.9 hPa WNW 8.1 mph /  13.0 km/h 8.1 mph /  13.0 km/h 40 % 0 in /  0.0 mm
11:12 80.1 °F /  26.7 °C 52.9 °F /  11.6 °C 29.6 in /  1002.9 hPa SW 9.2 mph /  14.8 km/h 9.2 mph /  14.8 km/h 39 % 0 in /  0.0 mm
11:17 80.8 °F /  27.1 °C 53.4 °F /  11.9 °C 29.6 in /  1002.9 hPa WSW 4 mph /  6.4 km/h 4 mph /  6.4 km/h 39 % 0 in /  0.0 mm
11:22 81.5 °F /  27.5 °C 53.4 °F /  11.9 °C 29.6 in /  1002.9 hPa WSW 5.8 mph /  9.3 km/h 5.8 mph /  9.3 km/h 38 % 0 in /  0.0 mm
11:23 81.5 °F /  27.5 °C 53.4 °F /  11.9 °C 29.6 in /  1002.9 hPa West 8.1 mph /  13.0 km/h 8.1 mph /  13.0 km/h 38 % 0 in /  0.0 mm
11:28 81.3 °F /  27.4 °C 52.5 °F /  11.4 °C 29.6 in /  1002.9 hPa West 8.1 mph /  13.0 km/h 8.1 mph /  13.0 km/h 37 % 0 in /  0.0 mm
11:33 81.3 °F /  27.4 °C 52.5 °F /  11.4 °C 29.6 in /  1002.9 hPa WSW 5.8 mph /  9.3 km/h 5.8 mph /  9.3 km/h 37 % 0 in /  0.0 mm
11:38 81.5 °F /  27.5 °C 52 °F /  11.1 °C 29.6 in /  1002.9 hPa WSW 8.1 mph /  13.0 km/h 8.1 mph /  13.0 km/h 36 % 0 in /  0.0 mm
11:43 82 °F /  27.8 °C 52.3 °F /  11.3 °C 29.6 in /  1002.9 hPa SW 5.8 mph /  9.3 km/h 5.8 mph /  9.3 km/h 36 % 0 in /  0.0 mm
11:48 81.7 °F /  27.6 °C 52.2 °F /  11.2 °C 29.6 in /  1002.9 hPa West 6.9 mph /  11.1 km/h 6.9 mph /  11.1 km/h 36 % 0 in /  0.0 mm
11:53 81.3 °F /  27.4 °C 51.8 °F /  11.0 °C 29.6 in /  1002.9 hPa West 6.9 mph /  11.1 km/h 6.9 mph /  11.1 km/h 36 % 0 in /  0.0 mm
11:58 80.8 °F /  27.1 °C 51.3 °F /  10.7 °C 29.6 in /  1002.9 hPa West 5.8 mph /  9.3 km/h 5.8 mph /  9.3 km/h 36 % 0 in /  0.0 mm
12:03 81.1 °F /  27.3 °C 51.6 °F /  10.9 °C 29.6 in /  1002.9 hPa South 5.8 mph /  9.3 km/h 5.8 mph /  9.3 km/h 36 % 0 in /  0.0 mm
12:08 81.9 °F /  27.7 °C 52.3 °F /  11.3 °C 29.6 in /  1002.9 hPa SW 4.6 mph /  7.4 km/h 4.6 mph /  7.4 km/h 36 % 0 in /  0.0 mm
12:13 80.8 °F /  27.1 °C 50.5 °F /  10.3 °C 29.6 in /  1002.9 hPa WSW 10.4 mph /  16.7 km/h 10.4 mph /  16.7 km/h 35 % 0 in /  0.0 mm
12:18 81.5 °F /  27.5 °C 51.3 °F /  10.7 °C 29.6 in /  1002.9 hPa WSW 5.8 mph /  9.3 km/h 5.8 mph /  9.3 km/h 35 % 0 in /  0.0 mm
12:23 82 °F /  27.8 °C 51.6 °F /  10.9 °C 29.6 in /  1002.9 hPa WNW 6.9 mph /  11.1 km/h 6.9 mph /  11.1 km/h 35 % 0 in /  0.0 mm
12:28 82.6 °F /  28.1 °C 51.4 °F /  10.8 °C 29.6 in /  1002.9 hPa West 10.4 mph /  16.7 km/h 10.4 mph /  16.7 km/h 34 % 0 in /  0.0 mm
12:33 82.8 °F /  28.2 °C 50.7 °F /  10.4 °C 29.6 in /  1002.9 hPa West 8.1 mph /  13.0 km/h 8.1 mph /  13.0 km/h 33 % 0 in /  0.0 mm
12:38 84.2 °F /  29.0 °C 52 °F /  11.1 °C 29.6 in /  1002.9 hPa West 5.8 mph /  9.3 km/h 5.8 mph /  9.3 km/h 33 % 0 in /  0.0 mm
12:43 83.1 °F /  28.4 °C 51.1 °F /  10.6 °C 29.6 in /  1001.9 hPa WSW 9.2 mph /  14.8 km/h 9.2 mph /  14.8 km/h 33 % 0 in /  0.0 mm
12:48 83.5 °F /  28.6 °C 50.5 °F /  10.3 °C 29.6 in /  1001.9 hPa WSW 6.9 mph /  11.1 km/h 6.9 mph /  11.1 km/h 32 % 0 in /  0.0 mm
12:53 82.9 °F /  28.3 °C 50 °F /  10.0 °C 29.6 in /  1001.9 hPa WNW 5.8 mph /  9.3 km/h 5.8 mph /  9.3 km/h 32 % 0 in /  0.0 mm
12:58 83.7 °F /  28.7 °C 51.4 °F /  10.8 °C 29.6 in /  1001.9 hPa SW 5.8 mph /  9.3 km/h 5.8 mph /  9.3 km/h 33 % 0 in /  0.0 mm
13:03 84 °F /  28.9 °C 51.1 °F /  10.6 °C 29.6 in /  1001.9 hPa WSW 8.1 mph /  13.0 km/h 8.1 mph /  13.0 km/h 32 % 0 in /  0.0 mm
13:08 83.1 °F /  28.4 °C 50.2 °F /  10.1 °C 29.6 in /  1001.9 hPa WSW 6.9 mph /  11.1 km/h 6.9 mph /  11.1 km/h 32 % 0 in /  0.0 mm
13:13 82.4 °F /  28.0 °C 49.6 °F /  9.8 °C 29.6 in /  1001.9 hPa SW 6 mph /  9.7 km/h 6 mph /  9.7 km/h 32 % 0 in /  0.0 mm
13:18 83.8 °F /  28.8 °C 50 °F /  10.0 °C 29.6 in /  1001.9 hPa South 8.1 mph /  13.0 km/h 8.1 mph /  13.0 km/h 31 % 0 in /  0.0 mm
13:23 84.2 °F /  29.0 °C 50.4 °F /  10.2 °C 29.6 in /  1001.9 hPa WSW 9.2 mph /  14.8 km/h 9.2 mph /  14.8 km/h 31 % 0 in /  0.0 mm
13:28 84.9 °F /  29.4 °C 50.9 °F /  10.5 °C 29.6 in /  1001.9 hPa West 2.3 mph /  3.7 km/h 2.9 mph /  4.7 km/h 31 % 0 in /  0.0 mm
13:33 85.5 °F /  29.7 °C 51.4 °F /  10.8 °C 29.6 in /  1001.9 hPa West 5.8 mph /  9.3 km/h 5.8 mph /  9.3 km/h 31 % 0 in /  0.0 mm
13:38 85.5 °F /  29.7 °C 51.4 °F /  10.8 °C 29.6 in /  1001.9 hPa West 11.5 mph /  18.5 km/h 11.5 mph /  18.5 km/h 31 % 0 in /  0.0 mm
13:43 85.5 °F /  29.7 °C 51.4 °F /  10.8 °C 29.6 in /  1001.9 hPa WSW 8.1 mph /  13.0 km/h 8.1 mph /  13.0 km/h 31 % 0 in /  0.0 mm
13:48 85.5 °F /  29.7 °C 51.4 °F /  10.8 °C 29.6 in /  1001.9 hPa SSW 7.6 mph /  12.2 km/h 7.6 mph /  12.2 km/h 31 % 0 in /  0.0 mm
13:53 85.8 °F /  29.9 °C 50.7 °F /  10.4 °C 29.6 in /  1001.9 hPa SW 10.4 mph /  16.7 km/h 10.4 mph /  16.7 km/h 30 % 0 in /  0.0 mm
13:58 85.8 °F /  29.9 °C 50.7 °F /  10.4 °C 29.6 in /  1001.9 hPa West 3.5 mph /  5.6 km/h 3.5 mph /  5.6 km/h 30 % 0 in /  0.0 mm
14:03 85.5 °F /  29.7 °C 49.6 °F /  9.8 °C 29.6 in /  1001.9 hPa WSW 10.4 mph /  16.7 km/h 10.4 mph /  16.7 km/h 29 % 0 in /  0.0 mm
14:08 85.3 °F /  29.6 °C 49.5 °F /  9.7 °C 29.6 in /  1001.9 hPa South 9.2 mph /  14.8 km/h 9.2 mph /  14.8 km/h 29 % 0 in /  0.0 mm
14:13 85.3 °F /  29.6 °C 49.5 °F /  9.7 °C 29.6 in /  1001.9 hPa West 12.7 mph /  20.4 km/h 12.7 mph /  20.4 km/h 29 % 0 in /  0.0 mm
14:18 85.5 °F /  29.7 °C 49.6 °F /  9.8 °C 29.6 in /  1001.9 hPa West 16.1 mph /  25.9 km/h 16.1 mph /  25.9 km/h 29 % 0 in /  0.0 mm
14:23 84.9 °F /  29.4 °C 48.2 °F /  9.0 °C 29.6 in /  1001.9 hPa West 10.4 mph /  16.7 km/h 10.4 mph /  16.7 km/h 28 % 0 in /  0.0 mm
14:28 85.5 °F /  29.7 °C 48.6 °F /  9.2 °C 29.6 in /  1001.9 hPa SW 6.9 mph /  11.1 km/h 6.9 mph /  11.1 km/h 28 % 0 in /  0.0 mm
14:33 86 °F /  30.0 °C 49.1 °F /  9.5 °C 29.6 in /  1001.9 hPa SW 10.4 mph /  16.7 km/h 10.4 mph /  16.7 km/h 28 % 0 in /  0.0 mm
14:38 85.8 °F /  29.9 °C 48.9 °F /  9.4 °C 29.6 in /  1001.9 hPa West 10.5 mph /  16.9 km/h 10.5 mph /  16.9 km/h 28 % 0 in /  0.0 mm
14:43 85.6 °F /  29.8 °C 48.7 °F /  9.3 °C 29.6 in /  1001.9 hPa SW 12.7 mph /  20.4 km/h 12.7 mph /  20.4 km/h 28 % 0 in /  0.0 mm
14:48 86.4 °F /  30.2 °C 49.5 °F /  9.7 °C 29.6 in /  1001.9 hPa WSW 8.1 mph /  13.0 km/h 8.1 mph /  13.0 km/h 28 % 0 in /  0.0 mm
14:53 86 °F /  30.0 °C 49.1 °F /  9.5 °C 29.6 in /  1001.9 hPa WNW 5.8 mph /  9.3 km/h 5.8 mph /  9.3 km/h 28 % 0 in /  0.0 mm
14:58 86.9 °F /  30.5 °C 49.8 °F /  9.9 °C 29.6 in /  1000.9 hPa WSW 5.6 mph /  9.0 km/h 5.6 mph /  9.0 km/h 28 % 0 in /  0.0 mm
15:03 85.8 °F /  29.9 °C 48.9 °F /  9.4 °C 29.6 in /  1000.9 hPa West 8.1 mph /  13.0 km/h 8.1 mph /  13.0 km/h 28 % 0 in /  0.0 mm
15:08 86.2 °F /  30.1 °C 49.3 °F /  9.6 °C 29.6 in /  1000.9 hPa ESE 9.2 mph /  14.8 km/h 9.2 mph /  14.8 km/h 28 % 0 in /  0.0 mm
15:13 86.2 °F /  30.1 °C 49.3 °F /  9.6 °C 29.6 in /  1000.9 hPa West 6.2 mph /  10.0 km/h 6.2 mph /  10.0 km/h 28 % 0 in /  0.0 mm
15:18 86.5 °F /  30.3 °C 49.6 °F /  9.8 °C 29.6 in /  1000.9 hPa WNW 10.4 mph /  16.7 km/h 10.4 mph /  16.7 km/h 28 % 0 in /  0.0 mm
15:23 86.2 °F /  30.1 °C 49.3 °F /  9.6 °C 29.6 in /  1000.9 hPa WSW 6.9 mph /  11.1 km/h 6.9 mph /  11.1 km/h 28 % 0 in /  0.0 mm
15:28 86.5 °F /  30.3 °C 49.6 °F /  9.8 °C 29.6 in /  1000.9 hPa SW 5.8 mph /  9.3 km/h 5.8 mph /  9.3 km/h 28 % 0 in /  0.0 mm
15:33 86.4 °F /  30.2 °C 49.5 °F /  9.7 °C 29.6 in /  1000.9 hPa WSW 6.4 mph /  10.3 km/h 6.4 mph /  10.3 km/h 28 % 0 in /  0.0 mm
15:38 86.2 °F /  30.1 °C 49.3 °F /  9.6 °C 29.6 in /  1000.9 hPa SSE 7.4 mph /  11.9 km/h 7.4 mph /  11.9 km/h 28 % 0 in /  0.0 mm
15:43 86.2 °F /  30.1 °C 49.3 °F /  9.6 °C 29.5 in /  999.9 hPa WSW 8.1 mph /  13.0 km/h 8.1 mph /  13.0 km/h 28 % 0 in /  0.0 mm
15:48 88 °F /  31.1 °C 50.7 °F /  10.4 °C 29.5 in /  999.9 hPa SSW 11.5 mph /  18.5 km/h 11.5 mph /  18.5 km/h 28 % 0 in /  0.0 mm
15:53 88.5 °F /  31.4 °C 51.3 °F /  10.7 °C 29.5 in /  999.9 hPa South 6.9 mph /  11.1 km/h 6.9 mph /  11.1 km/h 28 % 0 in /  0.0 mm
15:58 87.8 °F /  31.0 °C 50.5 °F /  10.3 °C 29.5 in /  999.9 hPa SSW 11.5 mph /  18.5 km/h 11.5 mph /  18.5 km/h 28 % 0 in /  0.0 mm
15:59 87.6 °F /  30.9 °C 50.5 °F /  10.3 °C 29.5 in /  999.9 hPa WSW 11.5 mph /  18.5 km/h 11.5 mph /  18.5 km/h 28 % 0 in /  0.0 mm
16:04 87.6 °F /  30.9 °C 50.5 °F /  10.3 °C 29.5 in /  999.9 hPa WNW 12.7 mph /  20.4 km/h 12.7 mph /  20.4 km/h 28 % 0 in /  0.0 mm
16:09 86 °F /  30.0 °C 49.1 °F /  9.5 °C 29.5 in /  999.9 hPa WSW 8.1 mph /  13.0 km/h 8.1 mph /  13.0 km/h 28 % 0 in /  0.0 mm
16:14 85.3 °F /  29.6 °C 48.6 °F /  9.2 °C 29.5 in /  999.9 hPa SW 6 mph /  9.7 km/h 6 mph /  9.7 km/h 28 % 0 in /  0.0 mm
16:19 84.4 °F /  29.1 °C 47.7 °F /  8.7 °C 29.5 in /  999.9 hPa West 10.4 mph /  16.7 km/h 10.4 mph /  16.7 km/h 28 % 0 in /  0.0 mm
16:24 84.2 °F /  29.0 °C 47.7 °F /  8.7 °C 29.5 in /  999.9 hPa SW 6.9 mph /  11.1 km/h 6.9 mph /  11.1 km/h 28 % 0 in /  0.0 mm
16:29 84.2 °F /  29.0 °C 47.7 °F /  8.7 °C 29.6 in /  1000.9 hPa SW 9 mph /  14.5 km/h 9 mph /  14.5 km/h 28 % 0 in /  0.0 mm
16:34 84.2 °F /  29.0 °C 47.7 °F /  8.7 °C 29.6 in /  1000.9 hPa SW 5.8 mph /  9.3 km/h 5.8 mph /  9.3 km/h 28 % 0 in /  0.0 mm
16:39 83.5 °F /  28.6 °C 47.8 °F /  8.8 °C 29.6 in /  1000.9 hPa SW 8.1 mph /  13.0 km/h 8.1 mph /  13.0 km/h 29 % 0 in /  0.0 mm
16:44 83.3 °F /  28.5 °C 47.7 °F /  8.7 °C 29.5 in /  999.9 hPa South 15 mph /  24.1 km/h 15 mph /  24.1 km/h 29 % 0 in /  0.0 mm
16:49 82.9 °F /  28.3 °C 47.5 °F /  8.6 °C 29.5 in /  999.9 hPa West 11.5 mph /  18.5 km/h 11.5 mph /  18.5 km/h 29 % 0 in /  0.0 mm
16:54 83.1 °F /  28.4 °C 47.7 °F /  8.7 °C 29.5 in /  999.9 hPa WSW 17.3 mph /  27.8 km/h 17.3 mph /  27.8 km/h 29 % 0 in /  0.0 mm
16:59 83.3 °F /  28.5 °C 48.6 °F /  9.2 °C 29.5 in /  999.9 hPa WSW 10.4 mph /  16.7 km/h 10.4 mph /  16.7 km/h 30 % 0 in /  0.0 mm
17:04 83.5 °F /  28.6 °C 48.7 °F /  9.3 °C 29.5 in /  999.9 hPa SW 11.5 mph /  18.5 km/h 11.5 mph /  18.5 km/h 30 % 0 in /  0.0 mm
17:09 83.3 °F /  28.5 °C 48.6 °F /  9.2 °C 29.5 in /  999.9 hPa WSW 9.2 mph /  14.8 km/h 9.2 mph /  14.8 km/h 30 % 0 in /  0.0 mm
17:14 84 °F /  28.9 °C 49.3 °F /  9.6 °C 29.5 in /  999.9 hPa SW 10.4 mph /  16.7 km/h 10.4 mph /  16.7 km/h 30 % 0 in /  0.0 mm
17:19 83.1 °F /  28.4 °C 48.6 °F /  9.2 °C 29.5 in /  999.9 hPa West 13.8 mph /  22.2 km/h 13.8 mph /  22.2 km/h 30 % 0 in /  0.0 mm
17:24 82.4 °F /  28.0 °C 48.7 °F /  9.3 °C 29.5 in /  999.9 hPa SSW 18.4 mph /  29.6 km/h 18.4 mph /  29.6 km/h 31 % 0 in /  0.0 mm
17:29 82.4 °F /  28.0 °C 48.7 °F /  9.3 °C 29.5 in /  999.9 hPa SW 13.8 mph /  22.2 km/h 13.8 mph /  22.2 km/h 31 % 0 in /  0.0 mm
17:34 82.2 °F /  27.9 °C 50.2 °F /  10.1 °C 29.5 in /  999.9 hPa SSW 13.8 mph /  22.2 km/h 13.8 mph /  22.2 km/h 33 % 0 in /  0.0 mm
17:40 82.6 °F /  28.1 °C 50.5 °F /  10.3 °C 29.5 in /  999.9 hPa SSW 18.7 mph /  30.1 km/h 18.7 mph /  30.1 km/h 33 % 0 in /  0.0 mm
17:45 82.2 °F /  27.9 °C 51.1 °F /  10.6 °C 29.5 in /  999.9 hPa SW 20.7 mph /  33.3 km/h 20.7 mph /  33.3 km/h 34 % 0 in /  0.0 mm
17:50 81.9 °F /  27.7 °C 51.4 °F /  10.8 °C 29.5 in /  999.9 hPa SW 13.8 mph /  22.2 km/h 13.8 mph /  22.2 km/h 35 % 0 in /  0.0 mm
17:55 82.9 °F /  28.3 °C 53.2 °F /  11.8 °C 29.5 in /  999.9 hPa SW 10 mph /  16.1 km/h 10 mph /  16.1 km/h 36 % 0 in /  0.0 mm
18:00 82.4 °F /  28.0 °C 52.9 °F /  11.6 °C 29.5 in /  999.9 hPa South 10 mph /  16.1 km/h 10 mph /  16.1 km/h 36 % 0 in /  0.0 mm
18:05 82 °F /  27.8 °C 53.2 °F /  11.8 °C 29.5 in /  999.9 hPa West 13.8 mph /  22.2 km/h 13.8 mph /  22.2 km/h 37 % 0 in /  0.0 mm
18:10 82.4 °F /  28.0 °C 52.9 °F /  11.6 °C 29.5 in /  999.9 hPa SW 12.3 mph /  19.8 km/h 12.3 mph /  19.8 km/h 36 % 0 in /  0.0 mm
18:15 82.4 °F /  28.0 °C 52.9 °F /  11.6 °C 29.5 in /  999.9 hPa SSW 13.8 mph /  22.2 km/h 13.8 mph /  22.2 km/h 36 % 0 in /  0.0 mm
18:20 82.2 °F /  27.9 °C 52.5 °F /  11.4 °C 29.5 in /  999.9 hPa SW 12.7 mph /  20.4 km/h 12.7 mph /  20.4 km/h 36 % 0 in /  0.0 mm
18:25 81.5 °F /  27.5 °C 52 °F /  11.1 °C 29.5 in /  999.9 hPa SW 10.4 mph /  16.7 km/h 10.4 mph /  16.7 km/h 36 % 0 in /  0.0 mm
18:30 81 °F /  27.2 °C 52.2 °F /  11.2 °C 29.5 in /  999.9 hPa SW 13 mph /  20.9 km/h 13 mph /  20.9 km/h 37 % 0 in /  0.0 mm
18:35 80.2 °F /  26.8 °C 53.1 °F /  11.7 °C 29.5 in /  999.9 hPa WSW 12.7 mph /  20.4 km/h 12.7 mph /  20.4 km/h 39 % 0 in /  0.0 mm
18:40 79.3 °F /  26.3 °C 52.9 °F /  11.6 °C 29.5 in /  999.9 hPa SW 13 mph /  20.9 km/h 13 mph /  20.9 km/h 40 % 0 in /  0.0 mm
18:45 79.2 °F /  26.2 °C 52.9 °F /  11.6 °C 29.5 in /  999.9 hPa West 15 mph /  24.1 km/h 15 mph /  24.1 km/h 40 % 0 in /  0.0 mm
18:50 78.8 °F /  26.0 °C 53.1 °F /  11.7 °C 29.5 in /  999.9 hPa WSW 15 mph /  24.1 km/h 15 mph /  24.1 km/h 41 % 0 in /  0.0 mm
18:55 79 °F /  26.1 °C 53.2 °F /  11.8 °C 29.5 in /  999.9 hPa SW 9.2 mph /  14.8 km/h 9.2 mph /  14.8 km/h 41 % 0 in /  0.0 mm
19:00 78.6 °F /  25.9 °C 53.6 °F /  12.0 °C 29.5 in /  999.9 hPa South 10.4 mph /  16.7 km/h 10.4 mph /  16.7 km/h 42 % 0 in /  0.0 mm
19:05 78.4 °F /  25.8 °C 54.1 °F /  12.3 °C 29.5 in /  999.9 hPa South 9.2 mph /  14.8 km/h 9.2 mph /  14.8 km/h 43 % 0 in /  0.0 mm
19:10 78.1 °F /  25.6 °C 54.3 °F /  12.4 °C 29.5 in /  999.9 hPa West 9.8 mph /  15.8 km/h 9.8 mph /  15.8 km/h 44 % 0 in /  0.0 mm
19:15 76.8 °F /  24.9 °C 54 °F /  12.2 °C 29.5 in /  999.9 hPa WSW 20.7 mph /  33.3 km/h 20.7 mph /  33.3 km/h 45 % 0 in /  0.0 mm
19:20 69.6 °F /  20.9 °C 52.2 °F /  11.2 °C 29.5 in /  999.9 hPa SSW 13.8 mph /  22.2 km/h 13.8 mph /  22.2 km/h 54 % 0 in /  0.0 mm
19:25 66.9 °F /  19.4 °C 52.2 °F /  11.2 °C 29.5 in /  999.9 hPa SW 5.8 mph /  9.3 km/h 5.8 mph /  9.3 km/h 59 % 0.08 in /  2.0 mm
19:30 66.2 °F /  19.0 °C 52 °F /  11.1 °C 29.6 in /  1001.9 hPa SW 4.6 mph /  7.4 km/h 4.6 mph /  7.4 km/h 60 % 0.08 in /  2.0 mm
19:35 65.8 °F /  18.8 °C 52.9 °F /  11.6 °C 29.6 in /  1001.9 hPa SSW 5.8 mph /  9.3 km/h 5.8 mph /  9.3 km/h 63 % 0.08 in /  2.0 mm
19:40 65.7 °F /  18.7 °C 53.1 °F /  11.7 °C 29.6 in /  1001.9 hPa WSW 3.5 mph /  5.6 km/h 3.5 mph /  5.6 km/h 64 % 0.08 in /  2.0 mm
19:45 65.8 °F /  18.8 °C 53.8 °F /  12.1 °C 29.6 in /  1000.9 hPa West 3.5 mph /  5.6 km/h 3.5 mph /  5.6 km/h 65 % 0.08 in /  2.0 mm
19:50 66.4 °F /  19.1 °C 54.7 °F /  12.6 °C 29.6 in /  1000.9 hPa West 2.3 mph /  3.7 km/h 2.3 mph /  3.7 km/h 66 % 0.08 in /  2.0 mm
19:55 66.6 °F /  19.2 °C 54.3 °F /  12.4 °C 29.6 in /  1000.9 hPa NW 1.6 mph /  2.6 km/h 1.6 mph /  2.6 km/h 65 % 0.08 in /  2.0 mm
20:00 66.9 °F /  19.4 °C 55.6 °F /  13.1 °C 29.6 in /  1001.9 hPa East 3.5 mph /  5.6 km/h 3.5 mph /  5.6 km/h 67 % 0.08 in /  2.0 mm
20:05 67.1 °F /  19.5 °C 55.4 °F /  13.0 °C 29.6 in /  1001.9 hPa East 2.4 mph /  3.9 km/h 2.4 mph /  3.9 km/h 66 % 0.08 in /  2.0 mm
20:10 67.3 °F /  19.6 °C 55.9 °F /  13.3 °C 29.6 in /  1001.9 hPa ENE 3.6 mph /  5.8 km/h 3.6 mph /  5.8 km/h 67 % 0.08 in /  2.0 mm
20:15 67.5 °F /  19.7 °C 56.1 °F /  13.4 °C 29.6 in /  1001.9 hPa South 2.3 mph /  3.7 km/h 2.3 mph /  3.7 km/h 67 % 0.08 in /  2.0 mm
20:20 67.3 °F /  19.6 °C 55.6 °F /  13.1 °C 29.6 in /  1001.9 hPa East 3.5 mph /  5.6 km/h 3.5 mph /  5.6 km/h 66 % 0.08 in /  2.0 mm
20:25 67.3 °F /  19.6 °C 55 °F /  12.8 °C 29.6 in /  1001.9 hPa NE 2.3 mph /  3.7 km/h   65 % 0 in /  0.0 mm
20:30 67.3 °F /  19.6 °C 55 °F /  12.8 °C 29.6 in /  1001.9 hPa NE 1.2 mph /  1.9 km/h   65 % 0 in /  0.0 mm
20:35 67.3 °F /  19.6 °C 54.7 °F /  12.6 °C 29.6 in /  1001.9 hPa West 1.2 mph /  1.9 km/h   64 % 0 in /  0.0 mm
20:40 67.5 °F /  19.7 °C 54.9 °F /  12.7 °C 29.6 in /  1001.9 hPa Calm     64 % 0 in /  0.0 mm
20:45 67.5 °F /  19.7 °C 54 °F /  12.2 °C 29.6 in /  1001.9 hPa WSW 2.3 mph /  3.7 km/h 2.3 mph /  3.7 km/h 62 % 0 in /  0.0 mm
20:50 67.6 °F /  19.8 °C 54.7 °F /  12.6 °C 29.6 in /  1001.9 hPa Calm     63 % 0 in /  0.0 mm
20:55 67.8 °F /  19.9 °C 54.9 °F /  12.7 °C 29.6 in /  1001.9 hPa SE 1.2 mph /  1.9 km/h   63 % 0 in /  0.0 mm
21:00 67.8 °F /  19.9 °C 54.3 °F /  12.4 °C 29.6 in /  1001.9 hPa Calm     62 % 0 in /  0.0 mm
21:05 67.8 °F /  19.9 °C 55.6 °F /  13.1 °C 29.6 in /  1001.9 hPa WSW 1.6 mph /  2.6 km/h   65 % 0 in /  0.0 mm
21:10 67.5 °F /  19.7 °C 56.1 °F /  13.4 °C 29.6 in /  1001.9 hPa WSW 1.2 mph /  1.9 km/h   67 % 0 in /  0.0 mm
21:15 67.3 °F /  19.6 °C 55.9 °F /  13.3 °C 29.6 in /  1001.9 hPa Calm     67 % 0 in /  0.0 mm
21:20 67.1 °F /  19.5 °C 55.8 °F /  13.2 °C 29.6 in /  1001.9 hPa WNW 1.2 mph /  1.9 km/h   67 % 0 in /  0.0 mm
21:25 67.1 °F /  19.5 °C 55.8 °F /  13.2 °C 29.6 in /  1001.9 hPa Calm     67 % 0 in /  0.0 mm
21:30 67.1 °F /  19.5 °C 56.7 °F /  13.7 °C 29.6 in /  1002.9 hPa NE 2 mph /  3.2 km/h 2 mph /  3.2 km/h 69 % 0 in /  0.0 mm
21:35 66.7 °F /  19.3 °C 55.8 °F /  13.2 °C 29.6 in /  1002.9 hPa ENE 1.4 mph /  2.3 km/h 1.4 mph /  2.3 km/h 68 % 0 in /  0.0 mm
21:40 66.7 °F /  19.3 °C 55.4 °F /  13.0 °C 29.6 in /  1002.9 hPa NE 2.3 mph /  3.7 km/h 2.3 mph /  3.7 km/h 67 % 0 in /  0.0 mm
21:45 67.1 °F /  19.5 °C 55.4 °F /  13.0 °C 29.6 in /  1002.9 hPa ENE 4.9 mph /  7.9 km/h 4.9 mph /  7.9 km/h 66 % 0 in /  0.0 mm
21:50 67.3 °F /  19.6 °C 55 °F /  12.8 °C 29.6 in /  1002.9 hPa North 4.6 mph /  7.4 km/h 4.6 mph /  7.4 km/h 65 % 0 in /  0.0 mm
21:55 67.5 °F /  19.7 °C 54.9 °F /  12.7 °C 29.6 in /  1002.9 hPa NE 5.8 mph /  9.3 km/h 5.8 mph /  9.3 km/h 64 % 0 in /  0.0 mm
22:00 67.5 °F /  19.7 °C 55.2 °F /  12.9 °C 29.6 in /  1003.9 hPa NNE 4.6 mph /  7.4 km/h 4.6 mph /  7.4 km/h 65 % 0 in /  0.0 mm
22:05 67.5 °F /  19.7 °C 55.2 °F /  12.9 °C 29.6 in /  1003.9 hPa NNE 5.8 mph /  9.3 km/h 5.8 mph /  9.3 km/h 65 % 0 in /  0.0 mm
22:10 67.5 °F /  19.7 °C 55.2 °F /  12.9 °C 29.6 in /  1003.9 hPa West 4.6 mph /  7.4 km/h 4.6 mph /  7.4 km/h 65 % 0 in /  0.0 mm
22:15 66.9 °F /  19.4 °C 54.9 °F /  12.7 °C 29.6 in /  1003.9 hPa NNE 3.3 mph /  5.3 km/h 3.3 mph /  5.3 km/h 65 % 0 in /  0.0 mm
22:20 67.1 °F /  19.5 °C 54.5 °F /  12.5 °C 29.6 in /  1003.9 hPa WSW 3.5 mph /  5.6 km/h 3.5 mph /  5.6 km/h 64 % 0 in /  0.0 mm
22:25 67.5 °F /  19.7 °C 54.9 °F /  12.7 °C 29.6 in /  1003.9 hPa East 2.4 mph /  3.9 km/h 2.4 mph /  3.9 km/h 64 % 0 in /  0.0 mm
22:30 67.8 °F /  19.9 °C 54.3 °F /  12.4 °C 29.6 in /  1002.9 hPa NNW 1.2 mph /  1.9 km/h 1.4 mph /  2.3 km/h 62 % 0 in /  0.0 mm
22:35 68.4 °F /  20.2 °C 54 °F /  12.2 °C 29.6 in /  1002.9 hPa East 2.3 mph /  3.7 km/h 2.3 mph /  3.7 km/h 60 % 0 in /  0.0 mm
22:40 68 °F /  20.0 °C 54.5 °F /  12.5 °C 29.6 in /  1002.9 hPa East 3.5 mph /  5.6 km/h 3.5 mph /  5.6 km/h 62 % 0 in /  0.0 mm
22:45 67.3 °F /  19.6 °C 55 °F /  12.8 °C 29.6 in /  1002.9 hPa ESE 4.6 mph /  7.4 km/h 4.6 mph /  7.4 km/h 65 % 0 in /  0.0 mm
22:50 66.9 °F /  19.4 °C 54.9 °F /  12.7 °C 29.6 in /  1002.9 hPa SSE 3.5 mph /  5.6 km/h 3.5 mph /  5.6 km/h 65 % 0 in /  0.0 mm
22:55 66.7 °F /  19.3 °C 55 °F /  12.8 °C 29.6 in /  1002.9 hPa SE 3.5 mph /  5.6 km/h 3.5 mph /  5.6 km/h 66 % 0 in /  0.0 mm
23:00 66.6 °F /  19.2 °C 54.3 °F /  12.4 °C 29.6 in /  1003.9 hPa SSW 0.9 mph /  1.4 km/h   65 % 0 in /  0.0 mm
23:05 66.4 °F /  19.1 °C 54.7 °F /  12.6 °C 29.6 in /  1003.9 hPa WSW 2.3 mph /  3.7 km/h 2.3 mph /  3.7 km/h 66 % 0 in /  0.0 mm
23:10 66 °F /  18.9 °C 54.7 °F /  12.6 °C 29.6 in /  1003.9 hPa SW 0.9 mph /  1.4 km/h   67 % 0 in /  0.0 mm
23:15 65.7 °F /  18.7 °C 54.9 °F /  12.7 °C 29.6 in /  1002.9 hPa Calm     68 % 0 in /  0.0 mm
23:20 65.7 °F /  18.7 °C 54.9 °F /  12.7 °C 29.6 in /  1002.9 hPa NE 2.3 mph /  3.7 km/h 2.3 mph /  3.7 km/h 68 % 0 in /  0.0 mm
23:25 61.2 °F /  16.2 °C 54 °F /  12.2 °C 29.7 in /  1006.0 hPa SW 2 mph /  3.2 km/h 2 mph /  3.2 km/h 77 % 0 in /  0.0 mm
23:30 65.8 °F /  18.8 °C 55 °F /  12.8 °C 29.6 in /  1003.9 hPa East 4.3 mph /  6.9 km/h 4.3 mph /  6.9 km/h 68 % 0 in /  0.0 mm
23:35 65.8 °F /  18.8 °C 55 °F /  12.8 °C 29.6 in /  1003.9 hPa ESE 5.8 mph /  9.3 km/h 5.8 mph /  9.3 km/h 68 % 0 in /  0.0 mm
23:40 65.8 °F /  18.8 °C 54.7 °F /  12.6 °C 29.6 in /  1003.9 hPa ESE 3.5 mph /  5.6 km/h 3.5 mph /  5.6 km/h 67 % 0 in /  0.0 mm
23:45 65.8 °F /  18.8 °C 55 °F /  12.8 °C 29.6 in /  1003.9 hPa NNE 3.5 mph /  5.6 km/h 3.5 mph /  5.6 km/h 68 % 0 in /  0.0 mm
23:50 65.8 °F /  18.8 °C 55 °F /  12.8 °C 29.6 in /  1003.9 hPa East 4.6 mph /  7.4 km/h 4.6 mph /  7.4 km/h 68 % 0 in /  0.0 mm
23:55 65.8 °F /  18.8 °C 55 °F /  12.8 °C 29.6 in /  1003.9 hPa SE 5.8 mph /  9.3 km/h 5.8 mph /  9.3 km/h 68 % 0 in /  0.0 mm
Meteo Sesrovires
Elogis d' Weather Underground - 3.5 mb

Guio original per  Jim McMurry - jmcmurry@mwt.net Adaptat per a la plantilla per  Wim van der Kuil - Leuven-Template.eu

Trobareu la nostra informacio del temps tambe a:

Weather Underground

AWEKAS